Time;durP1;ratioP1;P1;durP2;ratioP2;P2;SDS_P1;SDS_P2;PMS_P1;PMS_P2;Temp;Humidity;BMP_temperature;BMP_pressure;BME280_temperature;BME280_humidity;BME280_pressure;Samples;Min_cycle;Max_cycle;Signal;HPM_P1;HPM_P2
2024/01/02 00:01:09;;;;;;;;;;;21.60;37.90;;;;;;5074825;28;19928;-58
2024/01/02 00:03:36;;;;;;;;;;;21.50;37.90;;;;;;5074073;28;19924;-56
2024/01/02 00:06:03;;;;;;;;;;;21.50;37.80;;;;;;5074374;28;19933;-58
2024/01/02 00:08:30;;;;;;;;;;;21.50;37.90;;;;;;5074491;28;20263;-57
2024/01/02 00:10:57;;;;;;;;;;;21.50;37.90;;;;;;5074716;28;20358;-58
2024/01/02 00:13:24;;;;;;;;;;;21.50;37.90;;;;;;5073781;28;19928;-58
2024/01/02 00:15:51;;;;;;;;;;;21.50;37.90;;;;;;5074424;28;19928;-56
2024/01/02 00:18:18;;;;;;;;;;;21.50;37.90;;;;;;5073938;28;19924;-57
2024/01/02 00:20:45;;;;;;;;;;;21.50;37.90;;;;;;5073974;28;19963;-57
2024/01/02 00:23:11;;;;;;;;;;;21.50;37.90;;;;;;5074014;28;19931;-58
2024/01/02 00:25:39;;;;;;;;;;;21.50;37.90;;;;;;5074043;28;20296;-58
2024/01/02 00:28:06;;;;;;;;;;;21.50;37.90;;;;;;5074093;28;19961;-57
2024/01/02 00:30:34;;;;;;;;;;;21.50;37.90;;;;;;5074126;28;19925;-59
2024/01/02 00:33:04;;;;;;;;;;;21.50;37.80;;;;;;5074190;28;19929;-58
2024/01/02 00:35:33;;;;;;;;;;;21.50;37.80;;;;;;5056380;28;19931;-57
2024/01/02 00:38:00;;;;;;;;;;;21.50;37.80;;;;;;5073711;28;19967;-57
2024/01/02 00:40:27;;;;;;;;;;;21.50;37.90;;;;;;5073599;28;20378;-58
2024/01/02 00:42:54;;;;;;;;;;;21.50;37.90;;;;;;5055928;28;20359;-58
2024/01/02 00:45:21;;;;;;;;;;;21.50;37.90;;;;;;5073918;28;19982;-57
2024/01/02 00:47:48;;;;;;;;;;;21.50;37.90;;;;;;5073826;28;19986;-58
2024/01/02 00:50:15;;;;;;;;;;;21.50;37.90;;;;;;5073723;28;20183;-57
2024/01/02 00:52:42;;;;;;;;;;;21.50;37.90;;;;;;5055761;28;19924;-58
2024/01/02 00:55:09;;;;;;;;;;;21.40;37.90;;;;;;5073728;28;19924;-58
2024/01/02 00:57:36;;;;;;;;;;;21.40;37.90;;;;;;5073625;28;19925;-58
2024/01/02 01:00:04;;;;;;;;;;;21.40;37.90;;;;;;5073529;28;19948;-58
2024/01/02 01:02:31;;;;;;;;;;;21.40;37.90;;;;;;5073139;28;20023;-58
2024/01/02 01:04:58;;;;;;;;;;;21.40;37.90;;;;;;5073448;28;20404;-57
2024/01/02 01:07:26;;;;;;;;;;;21.50;37.90;;;;;;5073180;28;19982;-58
2024/01/02 01:09:52;;;;;;;;;;;21.40;37.90;;;;;;5073814;28;19924;-57
2024/01/02 01:12:19;;;;;;;;;;;21.40;37.90;;;;;;5073332;28;20382;-57
2024/01/02 01:14:46;;;;;;;;;;;21.40;37.90;;;;;;5073403;28;19967;-58
2024/01/02 01:17:13;;;;;;;;;;;21.40;37.90;;;;;;5073288;28;19932;-58
2024/01/02 01:19:41;;;;;;;;;;;21.40;37.90;;;;;;5073477;28;19978;-56
2024/01/02 01:22:07;;;;;;;;;;;21.40;38.10;;;;;;5073151;28;19924;-58
2024/01/02 01:24:34;;;;;;;;;;;21.40;37.90;;;;;;5073513;28;19975;-58
2024/01/02 01:27:01;;;;;;;;;;;21.40;37.90;;;;;;5073324;28;19924;-58
2024/01/02 01:29:28;;;;;;;;;;;21.40;37.90;;;;;;5073156;28;19924;-58
2024/01/02 01:31:55;;;;;;;;;;;21.40;37.90;;;;;;5072901;28;19928;-58
2024/01/02 01:37:29;;;;;;;;;;;21.40;37.90;;;;;;5073090;28;19925;-58
2024/01/02 01:39:56;;;;;;;;;;;21.40;37.80;;;;;;5073194;28;20424;-57
2024/01/02 01:42:23;;;;;;;;;;;21.40;37.90;;;;;;5072886;28;20016;-58
2024/01/02 01:44:50;;;;;;;;;;;21.40;37.90;;;;;;5073339;28;20370;-58
2024/01/02 01:47:17;;;;;;;;;;;21.40;37.90;;;;;;5073130;28;19925;-58
2024/01/02 01:49:44;;;;;;;;;;;21.40;37.90;;;;;;5073211;28;20321;-58
2024/01/02 01:52:12;;;;;;;;;;;21.40;37.90;;;;;;5073070;28;20015;-58
2024/01/02 01:54:39;;;;;;;;;;;21.40;37.90;;;;;;5073237;28;19931;-57
2024/01/02 01:57:06;;;;;;;;;;;21.40;37.90;;;;;;5072670;28;20445;-58
2024/01/02 01:59:33;;;;;;;;;;;21.40;37.90;;;;;;5072991;28;19925;-58
2024/01/02 02:02:00;;;;;;;;;;;21.40;37.90;;;;;;5072944;28;20371;-58
2024/01/02 02:04:28;;;;;;;;;;;21.40;37.90;;;;;;5073165;28;19925;-58
2024/01/02 02:06:55;;;;;;;;;;;21.40;37.90;;;;;;5072690;28;19925;-58
2024/01/02 02:09:22;;;;;;;;;;;21.40;37.90;;;;;;5072884;28;19979;-58
2024/01/02 02:11:49;;;;;;;;;;;21.30;37.80;;;;;;5073195;28;19924;-58
2024/01/02 02:14:16;;;;;;;;;;;21.40;37.90;;;;;;5073107;28;20262;-58
2024/01/02 02:16:43;;;;;;;;;;;21.30;37.80;;;;;;5072529;28;19924;-58
2024/01/02 02:19:10;;;;;;;;;;;21.30;37.80;;;;;;5073593;28;20306;-57
2024/01/02 02:21:38;;;;;;;;;;;21.30;37.80;;;;;;5076205;28;19931;-58
2024/01/02 02:24:05;;;;;;;;;;;21.30;37.90;;;;;;5076122;28;19971;-58
2024/01/02 02:26:32;;;;;;;;;;;21.30;37.90;;;;;;5076688;28;19925;-58
2024/01/02 02:28:59;;;;;;;;;;;21.30;37.90;;;;;;5076499;28;19928;-58
2024/01/02 02:31:26;;;;;;;;;;;21.30;37.90;;;;;;5076453;28;20274;-58
2024/01/02 02:33:53;;;;;;;;;;;21.40;37.90;;;;;;5075776;28;19973;-58
2024/01/02 02:36:20;;;;;;;;;;;21.30;37.80;;;;;;5076046;28;19924;-58
2024/01/02 02:38:47;;;;;;;;;;;21.40;37.90;;;;;;5076348;28;19947;-58
2024/01/02 02:41:14;;;;;;;;;;;21.30;37.80;;;;;;5076230;28;19931;-58
2024/01/02 02:43:41;;;;;;;;;;;21.30;37.80;;;;;;5075990;28;19925;-58
2024/01/02 02:46:07;;;;;;;;;;;21.30;37.80;;;;;;5075828;28;19925;-56
2024/01/02 02:48:34;;;;;;;;;;;21.30;37.80;;;;;;5075946;28;19957;-58
2024/01/02 02:51:01;;;;;;;;;;;21.30;37.80;;;;;;5075662;28;20401;-58
2024/01/02 02:53:28;;;;;;;;;;;21.30;37.80;;;;;;5075744;28;20447;-58
2024/01/02 02:55:55;;;;;;;;;;;21.30;37.90;;;;;;5075733;28;19928;-57
2024/01/02 02:58:22;;;;;;;;;;;21.30;37.90;;;;;;5075328;28;19936;-58
2024/01/02 03:00:49;;;;;;;;;;;21.30;37.90;;;;;;5075588;28;19936;-56
2024/01/02 03:03:16;;;;;;;;;;;21.30;37.90;;;;;;5075473;28;20386;-58
2024/01/02 03:05:43;;;;;;;;;;;21.30;37.90;;;;;;5075878;28;19936;-58
2024/01/02 03:08:10;;;;;;;;;;;21.30;37.90;;;;;;5075774;28;19925;-58
2024/01/02 03:10:37;;;;;;;;;;;21.30;38.00;;;;;;5058126;28;20259;-59
2024/01/02 03:13:04;;;;;;;;;;;21.30;37.80;;;;;;5075455;28;19929;-57
2024/01/02 03:15:31;;;;;;;;;;;21.30;37.80;;;;;;5075472;28;20357;-57
2024/01/02 03:17:58;;;;;;;;;;;21.30;37.80;;;;;;5075443;28;19924;-57
2024/01/02 03:20:25;;;;;;;;;;;21.30;37.80;;;;;;5075529;28;19947;-58
2024/01/02 03:22:55;;;;;;;;;;;21.30;37.90;;;;;;5074374;28;21333;-58
2024/01/02 03:25:22;;;;;;;;;;;21.20;37.80;;;;;;5075425;28;19928;-57
2024/01/02 03:27:49;;;;;;;;;;;21.20;37.80;;;;;;5075287;28;19971;-58
2024/01/02 03:30:16;;;;;;;;;;;21.20;37.80;;;;;;5074874;28;20027;-58
2024/01/02 03:32:43;;;;;;;;;;;21.20;37.80;;;;;;5075050;28;20054;-58
2024/01/02 03:35:11;;;;;;;;;;;21.20;37.80;;;;;;5075414;28;19924;-56
2024/01/02 03:37:38;;;;;;;;;;;21.20;37.80;;;;;;5075166;28;20012;-57
2024/01/02 03:40:06;;;;;;;;;;;21.30;37.80;;;;;;5075183;28;20274;-57
2024/01/02 03:42:33;;;;;;;;;;;21.30;37.80;;;;;;5075169;28;19929;-56
2024/01/02 03:45:00;;;;;;;;;;;21.20;37.80;;;;;;5075111;28;19925;-57
2024/01/02 03:47:27;;;;;;;;;;;21.30;37.80;;;;;;5075063;28;19956;-56
2024/01/02 03:49:54;;;;;;;;;;;21.30;37.80;;;;;;5074626;28;20027;-56
2024/01/02 03:52:21;;;;;;;;;;;21.30;37.80;;;;;;5074256;28;19924;-58
2024/01/02 03:54:47;;;;;;;;;;;21.20;37.80;;;;;;5074781;28;20373;-58
2024/01/02 03:57:14;;;;;;;;;;;21.20;37.70;;;;;;5074879;28;19931;-60
2024/01/02 03:59:41;;;;;;;;;;;21.20;37.80;;;;;;5074719;28;19924;-57
2024/01/02 04:02:08;;;;;;;;;;;21.20;37.80;;;;;;5074814;28;19939;-57
2024/01/02 04:04:37;;;;;;;;;;;21.20;37.80;;;;;;5074559;28;19932;-58
2024/01/02 04:07:04;;;;;;;;;;;21.20;37.70;;;;;;5074822;28;20381;-58
2024/01/02 04:09:31;;;;;;;;;;;21.20;37.80;;;;;;5074396;28;19925;-56
2024/01/02 04:11:57;;;;;;;;;;;21.20;37.70;;;;;;5074207;28;19924;-58
2024/01/02 04:14:25;;;;;;;;;;;21.20;37.70;;;;;;5074720;28;20309;-57
2024/01/02 04:16:52;;;;;;;;;;;21.20;37.70;;;;;;5074472;28;19931;-58
2024/01/02 04:19:21;;;;;;;;;;;21.20;37.80;;;;;;5074209;28;19925;-60
2024/01/02 04:21:48;;;;;;;;;;;21.20;37.70;;;;;;5074409;28;20019;-58
2024/01/02 04:24:15;;;;;;;;;;;21.20;37.70;;;;;;5074277;28;19968;-57
2024/01/02 04:26:42;;;;;;;;;;;21.30;37.80;;;;;;5074036;28;19955;-57
2024/01/02 04:29:09;;;;;;;;;;;21.20;37.70;;;;;;5074205;28;19925;-57
2024/01/02 04:31:36;;;;;;;;;;;21.20;37.70;;;;;;5074025;28;19925;-56
2024/01/02 04:34:03;;;;;;;;;;;21.20;37.70;;;;;;5073778;28;19929;-56
2024/01/02 04:36:30;;;;;;;;;;;21.20;37.70;;;;;;5074134;28;19932;-56
2024/01/02 04:38:57;;;;;;;;;;;21.10;37.60;;;;;;5073955;28;19931;-57
2024/01/02 04:41:24;;;;;;;;;;;21.20;37.40;;;;;;5073226;28;19924;-58
2024/01/02 04:43:51;;;;;;;;;;;21.20;37.30;;;;;;5073276;28;19924;-58
2024/01/02 04:46:18;;;;;;;;;;;21.20;37.20;;;;;;5073675;28;20023;-57
2024/01/02 04:48:45;;;;;;;;;;;21.20;37.00;;;;;;5073714;28;19932;-58
2024/01/02 04:51:12;;;;;;;;;;;21.20;36.90;;;;;;5072276;28;20327;-56
2024/01/02 04:53:39;;;;;;;;;;;21.20;36.80;;;;;;5072710;28;19970;-58
2024/01/02 04:56:06;;;;;;;;;;;21.20;36.70;;;;;;5072574;28;19924;-56
2024/01/02 04:58:33;;;;;;;;;;;21.20;36.60;;;;;;5073615;28;19928;-56
2024/01/02 05:01:00;;;;;;;;;;;21.20;36.60;;;;;;5073602;28;19924;-56
2024/01/02 05:03:27;;;;;;;;;;;21.30;36.50;;;;;;5073885;28;19925;-58
2024/01/02 05:05:54;;;;;;;;;;;21.30;36.40;;;;;;5073704;28;19956;-57
2024/01/02 05:08:21;;;;;;;;;;;21.30;36.30;;;;;;5073312;28;20340;-56
2024/01/02 05:10:48;;;;;;;;;;;21.30;36.20;;;;;;5073450;28;19924;-59
2024/01/02 05:13:15;;;;;;;;;;;21.40;36.10;;;;;;5072822;28;19929;-58
2024/01/02 05:15:42;;;;;;;;;;;21.30;36.00;;;;;;5073477;28;20278;-57
2024/01/02 05:18:09;;;;;;;;;;;21.40;35.90;;;;;;5073019;28;20389;-58
2024/01/02 05:20:37;;;;;;;;;;;21.40;35.80;;;;;;5073412;28;19960;-58
2024/01/02 05:23:04;;;;;;;;;;;21.40;35.80;;;;;;5073022;28;19931;-56
2024/01/02 05:25:42;;;;;;;;;;;21.40;35.70;;;;;;5073163;28;19932;-56
2024/01/02 05:28:09;;;;;;;;;;;21.40;35.60;;;;;;5072920;28;19954;-59
2024/01/02 05:30:36;;;;;;;;;;;21.40;35.60;;;;;;5072146;28;19932;-58
2024/01/02 05:33:03;;;;;;;;;;;21.40;35.50;;;;;;5073297;28;19951;-58
2024/01/02 05:35:31;;;;;;;;;;;21.40;35.50;;;;;;5073442;28;19924;-60
2024/01/02 05:37:58;;;;;;;;;;;21.40;35.50;;;;;;5072739;28;19925;-58
2024/01/02 05:40:25;;;;;;;;;;;21.40;35.40;;;;;;5073280;28;19994;-58
2024/01/02 05:42:52;;;;;;;;;;;21.40;35.30;;;;;;5072896;28;19924;-58
2024/01/02 05:45:19;;;;;;;;;;;21.40;35.30;;;;;;5073018;28;20344;-57
2024/01/02 05:47:46;;;;;;;;;;;21.40;35.30;;;;;;5073033;28;20328;-57
2024/01/02 05:50:13;;;;;;;;;;;21.40;35.20;;;;;;5073104;28;19928;-58
2024/01/02 05:52:41;;;;;;;;;;;21.40;35.20;;;;;;5072913;28;20015;-58
2024/01/02 05:55:09;;;;;;;;;;;21.40;35.20;;;;;;5059499;28;19963;-57
2024/01/02 05:57:35;;;;;;;;;;;21.50;35.20;;;;;;5077144;28;19958;-58
2024/01/02 06:00:02;;;;;;;;;;;21.50;35.20;;;;;;5076087;28;19967;-58
2024/01/02 06:02:29;;;;;;;;;;;21.50;35.10;;;;;;5076532;28;19932;-58
2024/01/02 06:04:56;;;;;;;;;;;21.50;35.10;;;;;;5076795;28;19932;-58
2024/01/02 06:07:23;;;;;;;;;;;21.50;35.10;;;;;;5076963;28;20019;-57
2024/01/02 06:09:50;;;;;;;;;;;21.50;35.00;;;;;;5076599;28;19967;-57
2024/01/02 06:12:17;;;;;;;;;;;21.50;35.00;;;;;;5058035;28;19936;-53
2024/01/02 06:14:44;;;;;;;;;;;21.50;35.00;;;;;;5076799;28;20290;-58
2024/01/02 06:17:12;;;;;;;;;;;21.50;35.00;;;;;;5076239;28;20293;-56
2024/01/02 06:19:39;;;;;;;;;;;21.50;35.50;;;;;;5075232;28;19931;-58
2024/01/02 06:22:06;;;;;;;;;;;21.50;34.90;;;;;;5074812;28;20397;-59
2024/01/02 06:24:33;;;;;;;;;;;21.50;34.90;;;;;;5073977;28;20498;-59
2024/01/02 06:27:00;;;;;;;;;;;21.50;35.60;;;;;;5073532;28;20038;-51
2024/01/02 06:29:27;;;;;;;;;;;21.50;35.40;;;;;;5072239;28;19924;-50
2024/01/02 06:31:54;;;;;;;;;;;21.50;35.70;;;;;;5075064;28;19933;-50
2024/01/02 06:34:21;;;;;;;;;;;21.50;35.90;;;;;;5049716;28;20008;-52
2024/01/02 06:36:49;;;;;;;;;;;21.60;36.00;;;;;;5058683;28;19979;-52
2024/01/02 06:39:15;;;;;;;;;;;21.60;36.10;;;;;;5063939;28;20281;-55
2024/01/02 06:41:44;;;;;;;;;;;21.60;36.10;;;;;;5065806;28;19928;-52
2024/01/02 06:44:12;;;;;;;;;;;21.70;36.10;;;;;;5071922;28;19931;-57
2024/01/02 06:46:40;;;;;;;;;;;21.70;35.90;;;;;;5067310;28;20321;-55
2024/01/02 06:49:08;;;;;;;;;;;21.70;36.00;;;;;;5070296;28;19936;-49
2024/01/02 06:51:36;;;;;;;;;;;21.70;36.10;;;;;;5069166;28;19970;-54
2024/01/02 06:54:03;;;;;;;;;;;21.70;36.20;;;;;;5068275;28;19932;-50
2024/01/02 06:56:30;;;;;;;;;;;21.70;36.20;;;;;;5069645;28;19932;-50
2024/01/02 06:58:57;;;;;;;;;;;21.80;36.30;;;;;;5068205;28;20008;-55
2024/01/02 07:01:26;;;;;;;;;;;21.80;36.40;;;;;;5066878;28;19932;-53
2024/01/02 07:03:53;;;;;;;;;;;21.80;36.50;;;;;;5062569;28;20450;-56
2024/01/02 07:06:21;;;;;;;;;;;21.90;36.60;;;;;;5067540;28;19936;-53
2024/01/02 07:08:48;;;;;;;;;;;21.90;36.50;;;;;;5054981;28;19925;-55
2024/01/02 07:11:15;;;;;;;;;;;22.00;36.60;;;;;;5049507;28;19932;-57
2024/01/02 07:13:42;;;;;;;;;;;22.00;36.20;;;;;;5068143;28;19925;-56
2024/01/02 07:16:10;;;;;;;;;;;22.00;36.00;;;;;;5068168;28;19924;-57
2024/01/02 07:18:38;;;;;;;;;;;22.00;36.20;;;;;;5068612;28;19943;-57
2024/01/02 07:21:05;;;;;;;;;;;22.10;36.40;;;;;;5064886;28;19936;-55
2024/01/02 07:23:37;;;;;;;;;;;22.10;36.30;;;;;;5067118;28;19932;-55
2024/01/02 07:26:04;;;;;;;;;;;22.20;36.40;;;;;;5063332;28;19963;-55
2024/01/02 07:28:31;;;;;;;;;;;22.20;36.30;;;;;;5066351;28;19924;-56
2024/01/02 07:30:58;;;;;;;;;;;22.20;36.30;;;;;;5067639;28;20382;-52
2024/01/02 07:33:25;;;;;;;;;;;22.30;36.30;;;;;;5066230;28;19928;-55
2024/01/02 07:35:53;;;;;;;;;;;22.30;36.30;;;;;;5070674;28;19979;-53
2024/01/02 07:38:20;;;;;;;;;;;22.40;36.40;;;;;;5071354;28;19924;-55
2024/01/02 07:40:47;;;;;;;;;;;22.40;36.40;;;;;;5067473;28;19931;-56
2024/01/02 07:43:14;;;;;;;;;;;22.50;36.90;;;;;;5063470;28;19933;-50
2024/01/02 07:45:41;;;;;;;;;;;22.50;36.40;;;;;;5070984;28;19968;-55
2024/01/02 07:48:08;;;;;;;;;;;22.50;36.30;;;;;;5070088;28;19924;-54
2024/01/02 07:50:35;;;;;;;;;;;22.60;36.30;;;;;;5067216;28;19932;-53
2024/01/02 07:53:02;;;;;;;;;;;22.60;36.20;;;;;;5069311;28;20332;-53
2024/01/02 07:55:29;;;;;;;;;;;22.70;36.10;;;;;;5069675;28;19925;-55
2024/01/02 07:57:57;;;;;;;;;;;22.70;36.00;;;;;;5068125;28;20267;-52
2024/01/02 08:00:25;;;;;;;;;;;22.80;36.00;;;;;;5069316;28;20040;-54
2024/01/02 08:02:51;;;;;;;;;;;22.80;36.00;;;;;;5068069;28;19947;-49
2024/01/02 08:05:18;;;;;;;;;;;22.80;36.00;;;;;;5069119;28;19925;-58
2024/01/02 08:07:45;;;;;;;;;;;22.90;36.10;;;;;;5068136;28;20344;-56
2024/01/02 08:10:12;;;;;;;;;;;22.90;35.90;;;;;;5071692;28;19931;-58
2024/01/02 08:12:39;;;;;;;;;;;22.90;35.60;;;;;;5068093;28;19970;-57
2024/01/02 08:15:06;;;;;;;;;;;22.90;35.30;;;;;;5067747;28;19931;-57
2024/01/02 08:17:33;;;;;;;;;;;22.90;35.10;;;;;;5068010;28;19960;-53
2024/01/02 08:20:00;;;;;;;;;;;22.90;34.90;;;;;;5066386;28;19982;-57
2024/01/02 08:22:27;;;;;;;;;;;22.90;35.30;;;;;;5069161;28;19925;-56
2024/01/02 08:24:54;;;;;;;;;;;22.90;34.70;;;;;;5061859;28;19932;-55
2024/01/02 08:27:25;;;;;;;;;;;22.80;34.50;;;;;;5069078;28;19931;-57
2024/01/02 08:29:52;;;;;;;;;;;22.80;34.50;;;;;;5064220;28;20003;-53
2024/01/02 08:32:21;;;;;;;;;;;22.80;34.60;;;;;;5069651;28;19935;-55
2024/01/02 08:34:49;;;;;;;;;;;22.80;34.70;;;;;;5067323;28;19928;-55
2024/01/02 08:37:16;;;;;;;;;;;22.80;34.70;;;;;;5070719;28;20354;-51
2024/01/02 08:39:43;;;;;;;;;;;22.90;34.80;;;;;;5066835;28;19932;-54
2024/01/02 08:42:10;;;;;;;;;;;22.90;34.70;;;;;;5072019;28;20054;-57
2024/01/02 08:44:37;;;;;;;;;;;22.90;34.70;;;;;;5069457;28;19925;-56
2024/01/02 08:47:05;;;;;;;;;;;22.90;34.80;;;;;;5066814;28;19935;-57
2024/01/02 08:49:32;;;;;;;;;;;22.90;34.70;;;;;;5069691;28;19936;-56
2024/01/02 08:51:59;;;;;;;;;;;22.90;34.70;;;;;;5062597;28;19994;-52
2024/01/02 08:54:26;;;;;;;;;;;23.00;35.00;;;;;;5069457;28;19932;-51
2024/01/02 08:56:53;;;;;;;;;;;23.00;35.30;;;;;;5066294;28;19925;-51
2024/01/02 08:59:20;;;;;;;;;;;23.10;35.50;;;;;;5058004;28;20012;-52
2024/01/02 09:01:53;;;;;;;;;;;23.20;35.60;;;;;;5066295;28;19936;-54
2024/01/02 09:04:20;;;;;;;;;;;23.30;35.60;;;;;;5075384;28;19994;-53
2024/01/02 09:06:47;;;;;;;;;;;23.30;35.60;;;;;;5071032;28;20387;-54
2024/01/02 09:09:15;;;;;;;;;;;23.30;35.70;;;;;;5070713;28;19925;-52
2024/01/02 09:11:42;;;;;;;;;;;23.40;35.80;;;;;;5067909;28;19978;-52
2024/01/02 09:14:09;;;;;;;;;;;23.50;35.70;;;;;;5074319;28;20141;-58
2024/01/02 09:16:38;;;;;;;;;;;23.50;35.70;;;;;;5069781;28;20390;-53
2024/01/02 09:19:05;;;;;;;;;;;23.60;35.80;;;;;;5070710;28;19981;-57
2024/01/02 09:21:32;;;;;;;;;;;23.60;35.80;;;;;;5066923;28;19924;-56
2024/01/02 09:23:59;;;;;;;;;;;23.70;35.80;;;;;;5072846;28;19975;-55
2024/01/02 09:26:27;;;;;;;;;;;23.70;35.70;;;;;;5064738;28;20464;-52
2024/01/02 09:28:54;;;;;;;;;;;23.70;35.60;;;;;;5072565;28;20384;-55
2024/01/02 09:31:25;;;;;;;;;;;23.80;35.50;;;;;;5070837;28;19943;-58
2024/01/02 09:33:52;;;;;;;;;;;23.80;35.40;;;;;;5070465;28;20295;-59
2024/01/02 09:36:20;;;;;;;;;;;23.90;35.40;;;;;;5054871;28;19929;-56
2024/01/02 09:38:47;;;;;;;;;;;23.90;35.40;;;;;;5073513;28;20060;-55
2024/01/02 09:41:34;;;;;;;;;;;23.90;35.40;;;;;;5072163;28;19991;-57
2024/01/02 09:44:15;;;;;;;;;;;24.00;35.50;;;;;;5068132;28;19924;-55
2024/01/02 09:46:52;;;;;;;;;;;24.00;35.40;;;;;;5069263;28;19924;-58
2024/01/02 09:49:25;;;;;;;;;;;24.10;35.40;;;;;;5069023;28;20335;-57
2024/01/02 09:52:00;;;;;;;;;;;24.10;35.20;;;;;;5064667;28;19932;-55
2024/01/02 09:54:49;;;;;;;;;;;24.20;35.20;;;;;;5065735;28;19928;-54
2024/01/02 09:57:23;;;;;;;;;;;24.20;35.20;;;;;;5065907;28;19924;-55
2024/01/02 10:00:01;;;;;;;;;;;24.30;35.30;;;;;;5063011;28;19932;-52
2024/01/02 10:02:44;;;;;;;;;;;24.30;35.20;;;;;;5066697;28;19971;-56
2024/01/02 10:05:31;;;;;;;;;;;24.30;35.30;;;;;;5045361;28;19924;-54
2024/01/02 10:08:16;;;;;;;;;;;24.40;35.20;;;;;;5069320;28;19947;-54
2024/01/02 10:11:03;;;;;;;;;;;24.40;35.20;;;;;;5065998;28;20300;-54
2024/01/02 10:13:37;;;;;;;;;;;24.40;35.20;;;;;;5067938;28;20076;-54
2024/01/02 10:16:11;;;;;;;;;;;24.40;35.10;;;;;;5069441;28;19924;-50
2024/01/02 10:18:54;;;;;;;;;;;24.50;35.10;;;;;;5066207;28;19935;-57
2024/01/02 10:21:29;;;;;;;;;;;24.50;35.10;;;;;;5067957;28;19972;-54
2024/01/02 10:24:05;;;;;;;;;;;24.50;35.00;;;;;;5069128;28;20050;-58
2024/01/02 10:26:35;;;;;;;;;;;24.50;35.00;;;;;;5065010;28;19955;-59
2024/01/02 10:29:03;;;;;;;;;;;24.50;34.80;;;;;;5064849;28;19929;-56
2024/01/02 10:31:42;;;;;;;;;;;24.50;34.70;;;;;;5066950;28;19935;-53
2024/01/02 10:34:28;;;;;;;;;;;24.50;34.60;;;;;;5068066;28;20488;-52
2024/01/02 10:37:03;;;;;;;;;;;24.50;34.50;;;;;;5038139;28;19931;-56
2024/01/02 10:39:49;;;;;;;;;;;24.50;34.40;;;;;;5050978;28;19925;-50
2024/01/02 10:42:28;;;;;;;;;;;24.50;34.30;;;;;;5072182;28;20110;-53
2024/01/02 10:45:11;;;;;;;;;;;24.50;34.30;;;;;;5074369;28;19932;-55
2024/01/02 10:47:58;;;;;;;;;;;24.50;34.20;;;;;;5076408;28;19943;-54
2024/01/02 10:50:31;;;;;;;;;;;24.50;34.20;;;;;;5068095;28;19933;-54
2024/01/02 10:53:09;;;;;;;;;;;24.50;34.20;;;;;;5069111;28;19928;-55
2024/01/02 10:55:48;;;;;;;;;;;24.50;34.10;;;;;;5071231;28;20401;-57
2024/01/02 10:58:28;;;;;;;;;;;24.50;34.10;;;;;;5048333;28;20374;-54
2024/01/02 11:04:22;;;;;;;;;;;24.50;34.30;;;;;;5072689;28;19960;-55
2024/01/02 11:06:55;;;;;;;;;;;24.60;34.50;;;;;;5069154;28;19960;-54
2024/01/02 11:09:34;;;;;;;;;;;24.60;34.50;;;;;;5054247;28;19955;-53
2024/01/02 11:12:04;;;;;;;;;;;24.60;34.60;;;;;;5074024;28;19959;-55
2024/01/02 11:14:42;;;;;;;;;;;24.60;34.60;;;;;;5070553;28;20309;-57
2024/01/02 11:17:13;;;;;;;;;;;24.60;34.70;;;;;;5072753;28;19931;-56
2024/01/02 11:19:43;;;;;;;;;;;24.70;34.80;;;;;;5074472;28;20397;-51
2024/01/02 11:22:13;;;;;;;;;;;24.70;34.70;;;;;;5070614;28;20019;-55
2024/01/02 11:24:43;;;;;;;;;;;24.70;34.70;;;;;;5068929;28;19924;-54
2024/01/02 11:27:11;;;;;;;;;;;24.70;34.60;;;;;;5066382;28;19946;-54
2024/01/02 11:29:43;;;;;;;;;;;24.70;34.40;;;;;;5076912;28;19924;-51
2024/01/02 11:32:14;;;;;;;;;;;24.70;34.50;;;;;;5059061;28;19931;-56
2024/01/02 11:35:00;;;;;;;;;;;24.70;34.50;;;;;;5067007;28;19924;-57
2024/01/02 11:37:32;;;;;;;;;;;24.70;34.60;;;;;;5070560;28;19924;-57
2024/01/02 11:40:10;;;;;;;;;;;24.70;34.50;;;;;;5072396;28;19928;-57
2024/01/02 11:45:48;;;;;;;;;;;24.70;34.30;;;;;;5068198;28;19967;-55
2024/01/02 11:51:43;;;;;;;;;;;24.70;34.20;;;;;;5065907;28;20062;-56
2024/01/02 11:54:21;;;;;;;;;;;24.70;34.10;;;;;;5068393;28;19925;-57
2024/01/02 11:56:49;;;;;;;;;;;24.80;34.20;;;;;;5074846;28;19970;-55
2024/01/02 11:59:36;;;;;;;;;;;24.80;34.10;;;;;;5057944;28;19960;-52
2024/01/02 12:02:06;;;;;;;;;;;24.80;34.00;;;;;;5043400;28;19939;-53
2024/01/02 12:04:43;;;;;;;;;;;24.80;33.80;;;;;;5042349;28;20054;-53
2024/01/02 12:07:12;;;;;;;;;;;24.80;33.90;;;;;;5038421;28;19939;-53
2024/01/02 12:09:42;;;;;;;;;;;24.90;34.10;;;;;;5043304;28;19939;-51
2024/01/02 12:12:23;;;;;;;;;;;24.90;34.30;;;;;;5040674;28;19940;-52
2024/01/02 12:15:03;;;;;;;;;;;24.90;34.20;;;;;;5038974;28;20396;-51
2024/01/02 12:17:34;;;;;;;;;;;24.90;34.80;;;;;;5041765;28;19948;-53
2024/01/02 12:20:05;;;;;;;;;;;24.90;34.30;;;;;;5034957;28;20045;-53
2024/01/02 12:22:36;;;;;;;;;;;24.90;34.40;;;;;;5037119;28;20685;-59
2024/01/02 12:25:04;;;;;;;;;;;25.00;34.60;;;;;;5020456;28;19941;-56
2024/01/02 12:27:36;;;;;;;;;;;25.00;34.70;;;;;;5041183;28;19936;-55
2024/01/02 12:30:04;;;;;;;;;;;25.10;34.70;;;;;;5039143;28;19940;-53
2024/01/02 12:32:51;;;;;;;;;;;25.10;34.50;;;;;;5040582;28;19932;-55
2024/01/02 12:35:32;;;;;;;;;;;25.10;34.60;;;;;;5042450;28;19947;-52
2024/01/02 12:38:05;;;;;;;;;;;25.10;34.40;;;;;;5038066;28;19954;-55
2024/01/02 12:40:35;;;;;;;;;;;25.10;34.30;;;;;;5039846;28;19937;-50
2024/01/02 12:43:03;;;;;;;;;;;25.10;34.20;;;;;;5040996;28;19932;-53
2024/01/02 12:45:31;;;;;;;;;;;25.10;34.20;;;;;;5041647;28;19932;-57
2024/01/02 12:48:02;;;;;;;;;;;25.10;34.10;;;;;;5038615;28;19932;-54
2024/01/02 12:50:31;;;;;;;;;;;25.10;34.00;;;;;;5038284;28;19933;-55
2024/01/02 12:53:08;;;;;;;;;;;25.20;33.80;;;;;;5034660;28;19939;-55
2024/01/02 12:55:38;;;;;;;;;;;25.20;33.80;;;;;;5018911;28;19932;-54
2024/01/02 12:58:05;;;;;;;;;;;25.20;33.80;;;;;;5039105;28;19948;-55
2024/01/02 13:00:32;;;;;;;;;;;25.20;33.60;;;;;;5037700;28;20070;-55
2024/01/02 13:03:01;;;;;;;;;;;25.30;33.50;;;;;;5039474;28;19933;-55
2024/01/02 13:05:28;;;;;;;;;;;25.30;33.60;;;;;;5040958;28;20121;-54
2024/01/02 13:07:55;;;;;;;;;;;25.30;33.60;;;;;;5041024;28;19932;-56
2024/01/02 13:10:24;;;;;;;;;;;25.30;33.40;;;;;;5001164;28;19932;-53
2024/01/02 13:12:53;;;;;;;;;;;25.30;33.20;;;;;;5020892;28;19933;-55
2024/01/02 13:15:21;;;;;;;;;;;25.30;33.20;;;;;;5038011;28;21343;-55
2024/01/02 13:17:49;;;;;;;;;;;25.30;33.30;;;;;;5037189;28;19954;-54
2024/01/02 13:20:16;;;;;;;;;;;25.30;33.30;;;;;;5038717;28;19936;-52
2024/01/02 13:22:43;;;;;;;;;;;25.30;33.10;;;;;;5035033;28;20014;-54
2024/01/02 13:25:15;;;;;;;;;;;25.20;33.00;;;;;;5038246;28;20023;-56
2024/01/02 13:27:42;;;;;;;;;;;25.20;32.90;;;;;;5022142;28;20017;-57
2024/01/02 13:30:09;;;;;;;;;;;25.20;32.80;;;;;;5040107;28;19933;-58
2024/01/02 13:32:36;;;;;;;;;;;25.20;32.80;;;;;;5036514;28;19937;-56
2024/01/02 13:35:17;;;;;;;;;;;25.20;32.80;;;;;;5035714;28;19932;-56
2024/01/02 13:37:45;;;;;;;;;;;25.20;32.80;;;;;;5037221;28;19978;-54
2024/01/02 13:40:19;;;;;;;;;;;25.20;33.00;;;;;;5058296;28;20293;-56
2024/01/02 13:42:52;;;;;;;;;;;25.20;33.00;;;;;;5061695;28;20340;-55
2024/01/02 13:45:25;;;;;;;;;;;25.20;32.90;;;;;;5044758;28;19936;-55
2024/01/02 13:47:54;;;;;;;;;;;25.20;32.90;;;;;;5069327;28;20002;-56
2024/01/02 13:50:32;;;;;;;;;;;25.20;33.00;;;;;;5065044;28;19952;-55
2024/01/02 13:53:01;;;;;;;;;;;25.20;32.90;;;;;;5065845;28;19932;-52
2024/01/02 13:55:28;;;;;;;;;;;25.10;32.80;;;;;;5062585;28;20362;-53
2024/01/02 13:58:05;;;;;;;;;;;25.10;32.70;;;;;;5069093;28;20018;-53
2024/01/02 14:00:32;;;;;;;;;;;25.20;32.80;;;;;;5066068;28;19968;-54
2024/01/02 14:02:58;;;;;;;;;;;25.10;32.70;;;;;;5065100;28;19928;-56
2024/01/02 14:05:29;;;;;;;;;;;25.10;32.80;;;;;;5070872;28;19928;-58
2024/01/02 14:07:59;;;;;;;;;;;25.10;32.90;;;;;;5068526;28;19933;-56
2024/01/02 14:10:27;;;;;;;;;;;25.10;33.00;;;;;;5072450;28;19924;-55
2024/01/02 14:12:54;;;;;;;;;;;25.10;33.00;;;;;;5066557;28;19929;-56
2024/01/02 14:15:23;;;;;;;;;;;25.00;33.00;;;;;;5071832;28;19925;-56
2024/01/02 14:17:58;;;;;;;;;;;25.00;33.00;;;;;;5069424;28;19928;-56
2024/01/02 14:20:30;;;;;;;;;;;25.00;33.10;;;;;;5068021;28;19942;-52
2024/01/02 14:23:02;;;;;;;;;;;25.00;33.10;;;;;;5062020;28;19966;-58
2024/01/02 14:25:43;;;;;;;;;;;24.90;33.10;;;;;;5067419;28;19986;-58
2024/01/02 14:28:15;;;;;;;;;;;24.90;33.10;;;;;;5067290;28;19939;-58
2024/01/02 14:30:42;;;;;;;;;;;24.90;33.10;;;;;;5053713;28;20032;-54
2024/01/02 14:33:14;;;;;;;;;;;24.90;33.00;;;;;;5071616;28;20013;-54
2024/01/02 14:36:01;;;;;;;;;;;24.80;33.00;;;;;;5062594;28;19943;-55
2024/01/02 14:38:33;;;;;;;;;;;24.80;33.00;;;;;;5065517;28;19933;-53
2024/01/02 14:41:20;;;;;;;;;;;24.80;33.10;;;;;;5062879;28;21647;-54